Latest Weather Observations for Gannett Cay

IDQ60801

Issued at 8:02 am EST Saturday 6 February 2016 (issued every 30 minutes, with the page automatically refreshed every 10 minutes)

About weather observations | Map of weather stations | Latest weather observations for QLD | Other Formats
Station Details ID: 200831 Name: GANNET CAY Lat: -21.98 Lon: 152.47 Height: 2.3 m
Data from the previous 72 hours. | See also: Recent months for locations in Queensland
Date/Time
EST
Temp
°C
App
Temp
°C
Dew
Point
Rel
Hum
%
Delta-T
°C
Wind Press
QNH
hPa
Press
MSL
hPa
Rain
since 9 am
mm
Dir
 
Spd
km/h
Gust
km/h
Spd
kts
Gust
kts
06/08:00am 26.2 - - - - S 11 11 6 6 1005.9 - -
06/07:30am 26.1 - - - - S 11 13 6 7 1005.2 - -
06/07:29am 26.1 - - - - S 11 11 6 6 1005.2 1005.4 -
06/07:00am 25.8 - - - - S 11 15 6 8 1004.7 - -
06/06:30am 25.8 - - - - SSW 6 7 3 4 1004.8 - -
06/06:29am 25.8 - - - - SSW 6 - 3 - - 1005.0 -
06/06:00am 25.8 - - - - CALM 0 7 0 4 1004.1 - -
06/05:30am 25.6 - - - - CALM 0 0 0 0 1003.9 - -
06/05:29am 25.6 - - - - CALM 0 - 0 - - 1004.0 -
06/05:00am 25.4 - - - - W 4 7 2 4 1003.2 - -
06/04:30am 25.4 - - - - W 11 15 6 8 1002.6 - -
06/04:29am 25.5 - - - - W 11 - 6 - - 1002.8 -
06/04:00am 25.8 - - - - NW 19 22 10 12 1002.7 - -
06/03:30am 26.3 - - - - N 17 20 9 11 1002.5 - -
06/03:29am 26.2 - - - - N 19 - 10 - - 1002.7 -
06/03:00am 26.0 - - - - NNE 15 22 8 12 1002.5 - -
06/02:30am 26.5 - - - - ESE 35 41 19 22 1002.5 - -
06/02:29am 26.3 - - - - ESE 35 - 19 - - 1002.7 -
06/02:00am 26.5 - - - - SE 35 43 19 23 1002.8 - -
06/01:30am 26.7 - - - - SE 35 41 19 22 1003.0 - -
06/01:29am 26.5 - - - - SE 35 - 19 - - 1003.2 -
06/01:00am 26.7 - - - - SE 39 44 21 24 1003.2 - -
06/12:30am 26.5 - - - - SE 43 46 23 25 1003.5 - -
06/12:29am 26.6 - - - - SE 43 - 23 - - 1003.7 -
06/12:00am 26.5 - - - - SE 39 44 21 24 1003.9 - -
 
Date/Time
EST
Temp
°C
App
Temp
°C
Dew
Point
Rel
Hum
%
Delta-T
°C
Wind Press
QNH
hPa
Press
MSL
hPa
Rain
since 9 am
mm
Dir
 
Spd
km/h
Gust
km/h
Spd
kts
Gust
kts
05/11:30pm 26.8 - - - - SE 41 46 22 25 1004.5 - -
05/11:29pm 26.7 - - - - SE 41 - 22 - - 1004.7 -
05/11:00pm 26.6 - - - - SE 43 46 23 25 1004.7 - -
05/10:30pm 26.6 - - - - SE 46 54 25 29 1004.8 - -
05/10:29pm 26.3 - - - - SE 46 - 25 - - 1005.0 -
05/10:00pm 26.2 - - - - ESE 43 52 23 28 1005.1 - -
05/09:30pm 26.1 - - - - ESE 43 48 23 26 1005.4 - -
05/09:29pm 26.2 - - - - ESE 43 - 23 - - 1005.6 -
05/09:00pm 25.9 - - - - SE 44 50 24 27 1005.2 - -
05/08:30pm 26.4 - - - - SE 46 54 25 29 1004.8 - -
05/08:29pm 26.3 - - - - SE 46 - 25 - - 1005.0 -
05/08:00pm 26.1 - - - - SE 52 63 28 34 1004.4 - -
05/07:30pm 26.0 - - - - SE 52 61 28 33 1003.9 - -
05/07:29pm 26.1 - - - - SE 50 - 27 - - 1004.1 -
05/07:00pm 26.0 - - - - SSE 44 54 24 29 1003.5 - -
05/06:30pm 26.3 - - - - SSE 43 48 23 26 1003.1 - -
05/06:29pm 26.3 - - - - SSE 43 - 23 - - 1003.3 -
05/06:25pm 26.3 - - - - SSE 43 50 23 27 1003.0 - -
05/06:01pm 26.2 - - - - S 28 46 15 25 1002.7 - -
05/06:00pm 26.2 - - - - S 26 46 14 25 1002.7 - -
05/05:30pm 28.1 - - - - NW 19 20 10 11 1002.3 - -
05/05:29pm 28.2 - - - - NW 20 - 11 - - 1002.5 -
05/05:00pm 28.2 - - - - NW 22 28 12 15 1001.9 - -
05/04:30pm 28.2 - - - - NW 24 26 13 14 1001.8 - -
05/04:29pm 28.2 - - - - NW 24 - 13 - - 1002.0 -
05/04:00pm 28.2 - - - - NW 26 30 14 16 1001.6 - -
05/03:30pm 28.2 - - - - NW 24 28 13 15 1001.8 - -
05/03:29pm 28.2 - - - - NW 24 - 13 - - 1002.0 -
05/03:00pm 28.2 - - - - NW 22 24 12 13 1002.0 - -
05/02:30pm 28.0 - - - - NW 24 28 13 15 1002.1 - -
05/02:29pm 28.0 - - - - NW 24 - 13 - - 1002.3 -
05/02:00pm 28.1 - - - - WNW 19 24 10 13 1002.3 - -
05/01:30pm 28.2 - - - - W 20 22 11 12 1002.7 - -
05/01:29pm 28.2 - - - - W 20 - 11 - - 1002.9 -
05/01:00pm 28.1 - - - - W 20 22 11 12 1002.7 - -
05/12:30pm 27.9 - - - - WNW 17 20 9 11 1002.6 - -
05/12:29pm 28.0 - - - - WNW 17 - 9 - - 1002.8 -
05/12:00pm 27.7 - - - - WNW 15 17 8 9 1002.7 - -
05/11:30am 27.4 - - - - W 17 19 9 10 1003.0 - -
05/11:29am 27.5 - - - - W 17 - 9 - - 1003.3 -
05/11:00am 26.7 - - - - WNW 19 20 10 11 1003.6 - -
05/10:30am 27.0 - - - - WNW 11 13 6 7 1003.8 - -
05/10:29am 27.1 - - - - WNW 9 - 5 - - 1004.0 -
05/10:00am 26.9 - - - - N 4 7 2 4 1003.8 - -
05/09:30am 26.6 - - - - NW 9 11 5 6 1003.7 - -
05/09:29am 26.6 - - - - NW 9 - 5 - - 1003.9 -
05/09:00am 26.6 - - - - NW 7 9 4 5 1003.8 - -
05/08:30am 26.2 - - - - SW 9 9 5 5 1003.7 - -
05/08:29am 26.2 - - - - SW 9 - 5 - - 1003.9 -
05/08:00am 25.9 - - - - S 13 15 7 8 1003.6 - -
05/07:30am 25.5 - - - - SSW 11 13 6 7 1003.1 - -
05/07:29am 25.4 - - - - SSW 11 - 6 - - 1003.3 -
05/07:00am 25.1 - - - - SW 19 24 10 13 1003.2 - -
05/06:30am 27.2 - - - - NW 17 20 9 11 1002.7 - -
05/06:29am 27.2 - - - - NW 17 - 9 - - 1002.9 -
05/06:00am 26.9 - - - - N 26 30 14 16 1002.0 - -
05/05:30am 27.0 - - - - N 20 30 11 16 1001.7 - -
05/05:29am 26.9 - - - - N 19 - 10 - - 1001.9 -
05/05:00am 27.7 - - - - N 15 17 8 9 1001.4 - -
05/04:30am 27.9 - - - - NW 15 17 8 9 1001.3 - -
05/04:29am 28.0 - - - - NW 15 - 8 - - 1001.4 -
05/04:00am 27.8 - - - - NW 13 17 7 9 1001.0 - -
05/03:30am 27.8 - - - - NW 17 20 9 11 1001.1 - -
05/03:29am 27.8 - - - - NW 17 - 9 - - 1001.3 -
05/03:00am 27.9 - - - - NW 17 20 9 11 1001.3 - -
05/02:30am 27.9 - - - - NW 19 20 10 11 1001.6 - -
05/02:29am 27.9 - - - - NW 19 - 10 - - 1001.8 -
05/02:00am 27.8 - - - - NW 19 22 10 12 1001.7 - -
05/01:30am 27.8 - - - - NNW 22 26 12 14 1001.9 - -
05/01:29am 27.8 - - - - NNW 22 - 12 - - 1002.1 -
05/01:00am 28.1 - - - - NW 22 24 12 13 1002.3 - -
05/12:30am 28.0 - - - - NNW 20 24 11 13 1002.8 - -
05/12:29am 28.1 - - - - NW 20 - 11 - - 1003.0 -
05/12:00am 28.3 - - - - NW 19 20 10 11 1003.3 - -
 
Date/Time
EST
Temp
°C
App
Temp
°C
Dew
Point
Rel
Hum
%
Delta-T
°C
Wind Press
QNH
hPa
Press
MSL
hPa
Rain
since 9 am
mm
Dir
 
Spd
km/h
Gust
km/h
Spd
kts
Gust
kts
04/11:30pm 28.2 - - - - NW 17 20 9 11 1003.9 - -
04/11:29pm 28.2 - - - - NW 17 - 9 - - 1004.1 -
04/11:00pm 28.2 - - - - NW 19 20 10 11 1004.1 - -
04/10:30pm 28.3 - - - - NW 19 20 10 11 1004.3 - -
04/10:29pm 28.3 - - - - NW 19 - 10 - - 1004.5 -
04/10:00pm 28.3 - - - - NW 19 20 10 11 1004.5 - -
04/09:30pm 28.3 - - - - NW 17 19 9 10 1004.1 - -
04/09:29pm 28.2 - - - - NW 17 - 9 - - 1004.3 -
04/09:00pm 28.3 - - - - NW 19 20 10 11 1003.9 - -
04/08:30pm 28.2 - - - - NW 19 20 10 11 1003.6 - -
04/08:29pm 28.2 - - - - NW 19 - 10 - - 1003.8 -
04/08:00pm 28.1 - - - - NW 17 19 9 10 1003.4 - -
04/07:30pm 28.2 - - - - NW 15 17 8 9 1003.1 - -
04/07:29pm 28.2 - - - - NW 15 - 8 - - 1003.3 -
04/07:00pm 28.2 - - - - NW 13 15 7 8 1002.7 - -
04/06:30pm 28.2 - - - - NW 13 15 7 8 1002.5 - -
04/06:29pm 28.2 - - - - NW 13 - 7 - - 1002.6 -
04/06:00pm 28.2 - - - - NW 15 20 8 11 1002.3 - -
04/05:30pm 28.3 - - - - NW 17 20 9 11 1002.3 - -
04/05:29pm 28.2 - - - - NW 17 - 9 - - 1002.5 -
04/05:00pm 28.2 - - - - NNW 19 22 10 12 1002.2 - -
04/04:30pm 28.4 - - - - NNW 19 22 10 12 1002.1 - -
04/04:29pm 28.4 - - - - NNW 20 - 11 - - 1002.3 -
04/04:00pm 28.5 - - - - NW 20 24 11 13 1002.1 - -
04/03:30pm 28.5 - - - - NW 19 20 10 11 1002.1 - -
04/03:29pm 28.5 - - - - NW 19 - 10 - - 1002.3 -
04/03:00pm 28.6 - - - - NW 19 20 10 11 1002.2 - -
04/02:30pm 28.5 - - - - NW 20 24 11 13 1002.6 - -
04/02:29pm 28.4 - - - - NW 20 - 11 - - 1002.8 -
04/02:00pm 28.5 - - - - NW 22 24 12 13 1002.9 - -
04/01:30pm 28.5 - - - - NW 20 24 11 13 1003.3 - -
04/01:29pm 28.6 - - - - NW 19 - 10 - - 1003.5 -
04/01:00pm 28.3 - - - - NNW 17 20 9 11 1003.5 - -
04/12:30pm 28.4 - - - - NW 22 24 12 13 1003.6 - -
04/12:29pm 28.3 - - - - NNW 22 - 12 - - 1003.8 -
04/12:00pm 28.3 - - - - NW 24 28 13 15 1003.7 - -
04/11:30am 28.3 - - - - NW 26 30 14 16 1004.1 - -
04/11:29am 28.2 - - - - NW 26 - 14 - - 1004.3 -
04/11:00am 28.2 - - - - NW 26 32 14 17 1004.5 - -
04/10:30am 28.1 - - - - NW 28 33 15 18 1004.7 - -
04/10:29am 28.0 - - - - NW 26 - 14 - - 1005.0 -
04/10:00am 27.9 - - - - NNW 30 33 16 18 1004.7 - -
04/09:30am 27.7 - - - - NNW 32 35 17 19 1004.6 - -
04/09:29am 27.8 - - - - NNW 32 - 17 - - 1004.8 -
04/09:00am 27.6 - - - - NNW 33 39 18 21 1004.3 - -
04/08:30am 27.7 - - - - NNW 32 35 17 19 1003.9 - -
04/08:29am 27.6 - - - - NNW 32 - 17 - - 1004.1 -
04/08:00am 27.5 - - - - NNW 33 35 18 19 1003.7 - -
04/07:30am 27.4 - - - - NNW 28 32 15 17 1003.4 - -
04/07:29am 27.4 - - - - NNW 30 - 16 - - 1003.5 -
04/07:00am 27.3 - - - - N 24 28 13 15 1003.3 - -
04/06:30am 27.2 - - - - NNW 24 28 13 15 1003.4 - -
04/06:29am 27.3 - - - - NNW 24 - 13 - - 1003.6 -
04/06:00am 26.7 - - - - NNW 17 20 9 11 1003.4 - -
04/05:30am 26.5 - - - - NNW 15 17 8 9 1003.3 - -
04/05:29am 26.6 - - - - NNW 15 - 8 - - 1003.5 -
04/05:00am 26.2 - - - - NW 11 13 6 7 1003.2 - -
04/04:30am 26.0 - - - - NW 7 9 4 5 1003.1 - -
04/04:29am 26.0 - - - - NW 7 - 4 - - 1003.4 -
04/04:00am 25.6 - - - - CALM 0 0 0 0 1003.3 - -
04/03:30am 25.4 - - - - CALM 0 0 0 0 1003.8 - -
04/03:29am 25.4 - - - - CALM 0 - 0 - - 1004.0 -
04/03:00am 25.5 - - - - SE 4 6 2 3 1004.5 - -
04/02:30am 25.3 - - - - S 13 19 7 10 1005.0 - -
04/02:29am 25.3 - - - - S 13 - 7 - - 1005.1 -
04/02:00am 25.1 - - - - SE 11 17 6 9 1005.2 - -
04/01:30am 24.9 - - - - S 33 44 18 24 1005.3 - -
04/01:29am 24.9 - - - - S 33 - 18 - - 1005.5 -
04/01:00am 24.7 - - - - S 48 59 26 32 1005.1 - -
04/12:30am 25.2 - - - - S 43 50 23 27 1005.6 - -
04/12:29am 25.0 - - - - S 44 - 24 - - 1005.8 -
04/12:12am 25.0 - - - - S 46 52 25 28 1005.8 - -
04/12:00am 26.6 - - - - SSW 24 32 13 17 1005.9 - -
 
Date/Time
EST
Temp
°C
App
Temp
°C
Dew
Point
Rel
Hum
%
Delta-T
°C
Wind Press
QNH
hPa
Press
MSL
hPa
Rain
since 9 am
mm
Dir
 
Spd
km/h
Gust
km/h
Spd
kts
Gust
kts
03/11:30pm 28.6 - - - - WNW 19 22 10 12 1005.8 - -
03/11:29pm 28.6 - - - - WNW 20 - 11 - - 1006.0 -
03/11:00pm 28.7 - - - - NW 24 28 13 15 1005.7 - -
03/10:30pm 28.7 - - - - NNW 22 26 12 14 1005.7 - -
03/10:29pm 28.7 - - - - NNW 22 - 12 - - 1005.9 -
03/10:00pm 28.7 - - - - NNW 22 26 12 14 1005.8 - -
03/09:30pm 28.6 - - - - NNW 17 20 9 11 1005.8 - -
03/09:29pm 28.6 - - - - NNW 17 - 9 - - 1006.0 -
03/09:00pm 28.7 - - - - NW 20 24 11 13 1005.5 - -
03/08:30pm 28.7 - - - - NW 28 35 15 19 1005.3 - -
03/08:29pm 28.7 - - - - NW 28 - 15 - - 1005.5 -
03/08:00pm 28.7 - - - - NNW 37 43 20 23 1004.7 - -
03/07:30pm 28.6 - - - - NNW 32 35 17 19 1005.0 - -
03/07:29pm 28.6 - - - - NNW 32 - 17 - - 1005.2 -
03/07:00pm 28.5 - - - - NNW 28 32 15 17 1004.8 - -
03/06:30pm 28.5 - - - - NNW 28 32 15 17 1004.0 - -
03/06:29pm 28.5 - - - - NNW 28 - 15 - - 1004.2 -
03/06:00pm 28.6 - - - - NNW 30 33 16 18 1003.8 - -
03/05:30pm 28.7 - - - - NNW 28 32 15 17 1003.7 - -
03/05:29pm 28.6 - - - - NNW 28 - 15 - - 1003.9 -
03/05:00pm 28.7 - - - - NNW 28 32 15 17 1003.2 - -
03/04:30pm 28.7 - - - - NW 30 33 16 18 1003.1 - -
03/04:29pm 28.7 - - - - NW 30 - 16 - - 1003.2 -
03/04:00pm 28.7 - - - - NW 30 33 16 18 1002.9 - -
03/03:30pm 28.8 - - - - NW 28 33 15 18 1003.2 - -
03/03:29pm 28.8 - - - - NW 28 - 15 - - 1003.4 -
03/03:00pm 28.8 - - - - NW 30 35 16 19 1003.3 - -
03/02:30pm 28.8 - - - - NW 33 39 18 21 1003.9 - -
03/02:29pm 28.9 - - - - NW 33 - 18 - - 1004.1 -
03/02:00pm 28.8 - - - - NW 33 39 18 21 1004.0 - -
03/01:30pm 28.8 - - - - NW 33 39 18 21 1004.5 - -
03/01:29pm 28.9 - - - - NW 33 - 18 - - 1004.7 -
03/01:00pm 28.8 - - - - NW 35 41 19 22 1004.9 - -
03/12:30pm 28.8 - - - - NW 35 43 19 23 1005.3 - -
03/12:29pm 28.9 - - - - NW 35 - 19 - - 1005.5 -
03/12:00pm 28.8 - - - - NW 33 39 18 21 1005.6 - -
03/11:30am 28.7 - - - - NW 32 35 17 19 1005.8 - -
03/11:29am 28.7 - - - - NW 32 - 17 - - 1006.0 -
03/11:00am 28.7 - - - - NW 30 33 16 18 1006.1 - -
03/10:30am 28.7 - - - - NW 30 35 16 19 1006.3 - -
03/10:29am 28.7 - - - - NW 30 - 16 - - 1006.5 -
03/10:00am 28.7 - - - - NW 32 35 17 19 1006.3 - -
03/09:30am 28.6 - - - - NW 30 35 16 19 1006.3 - -
03/09:29am 28.6 - - - - NW 30 - 16 - - 1006.5 -
03/09:00am 28.5 - - - - NW 30 33 16 18 1006.3 - -
03/08:30am 28.5 - - - - NNW 30 35 16 19 1006.2 - -
03/08:29am 28.4 - - - - NNW 30 - 16 - - 1006.4 -

Other Formats:

Comma delimited format used in spreadsheet applications
http://www.bom.gov.au/fwo/IDQ60801/IDQ60801.94379.axf

JavaScript Object Notation format (JSON) in row-major order
http://www.bom.gov.au/fwo/IDQ60801/IDQ60801.94379.json